sensor_id;sensor_type;location;lat;lon;timestamp;P1;durP1;ratioP1;P2;durP2;ratioP2
77838;SDS011;67034;43.226;27.932;2023-03-24T00:01:54;24.67;;;12.55;;
77838;SDS011;67034;43.226;27.932;2023-03-24T00:04:21;24.83;;;13.60;;
77838;SDS011;67034;43.226;27.932;2023-03-24T00:06:49;28.60;;;14.38;;
77838;SDS011;67034;43.226;27.932;2023-03-24T00:09:16;22.60;;;11.82;;
77838;SDS011;67034;43.226;27.932;2023-03-24T00:11:42;22.55;;;12.43;;
77838;SDS011;67034;43.226;27.932;2023-03-24T00:14:08;24.33;;;12.75;;
77838;SDS011;67034;43.226;27.932;2023-03-24T00:16:36;24.38;;;13.98;;
77838;SDS011;67034;43.226;27.932;2023-03-24T00:19:02;25.73;;;15.07;;
77838;SDS011;67034;43.226;27.932;2023-03-24T00:21:28;27.83;;;13.23;;
77838;SDS011;67034;43.226;27.932;2023-03-24T00:23:54;21.80;;;12.00;;
77838;SDS011;67034;43.226;27.932;2023-03-24T00:26:23;20.42;;;12.40;;
77838;SDS011;67034;43.226;27.932;2023-03-24T00:28:49;22.33;;;12.23;;
77838;SDS011;67034;43.226;27.932;2023-03-24T00:31:16;22.20;;;12.48;;
77838;SDS011;67034;43.226;27.932;2023-03-24T00:33:42;22.90;;;12.32;;
77838;SDS011;67034;43.226;27.932;2023-03-24T00:36:12;25.63;;;13.07;;
77838;SDS011;67034;43.226;27.932;2023-03-24T00:38:38;26.50;;;14.18;;
77838;SDS011;67034;43.226;27.932;2023-03-24T00:41:05;26.30;;;13.65;;
77838;SDS011;67034;43.226;27.932;2023-03-24T00:43:33;35.70;;;15.55;;
77838;SDS011;67034;43.226;27.932;2023-03-24T00:45:59;25.38;;;13.35;;
77838;SDS011;67034;43.226;27.932;2023-03-24T00:48:27;30.55;;;15.40;;
77838;SDS011;67034;43.226;27.932;2023-03-24T00:50:53;27.92;;;14.10;;
77838;SDS011;67034;43.226;27.932;2023-03-24T00:53:20;29.83;;;14.20;;
77838;SDS011;67034;43.226;27.932;2023-03-24T00:55:53;23.75;;;11.85;;
77838;SDS011;67034;43.226;27.932;2023-03-24T00:58:19;20.17;;;12.77;;
77838;SDS011;67034;43.226;27.932;2023-03-24T01:00:50;24.15;;;12.85;;
77838;SDS011;67034;43.226;27.932;2023-03-24T01:03:17;23.90;;;11.73;;
77838;SDS011;67034;43.226;27.932;2023-03-24T01:05:46;25.30;;;12.82;;
77838;SDS011;67034;43.226;27.932;2023-03-24T01:08:12;28.27;;;12.80;;
77838;SDS011;67034;43.226;27.932;2023-03-24T01:10:39;22.95;;;12.40;;
77838;SDS011;67034;43.226;27.932;2023-03-24T01:13:17;24.40;;;11.55;;
77838;SDS011;67034;43.226;27.932;2023-03-24T01:15:45;22.75;;;11.98;;
77838;SDS011;67034;43.226;27.932;2023-03-24T01:18:13;23.25;;;11.90;;
77838;SDS011;67034;43.226;27.932;2023-03-24T01:20:40;21.10;;;11.85;;
77838;SDS011;67034;43.226;27.932;2023-03-24T01:23:09;22.88;;;11.95;;
77838;SDS011;67034;43.226;27.932;2023-03-24T01:25:37;24.23;;;12.27;;
77838;SDS011;67034;43.226;27.932;2023-03-24T01:28:03;20.15;;;10.80;;
77838;SDS011;67034;43.226;27.932;2023-03-24T01:30:29;24.25;;;12.35;;
77838;SDS011;67034;43.226;27.932;2023-03-24T01:32:55;22.55;;;11.52;;
77838;SDS011;67034;43.226;27.932;2023-03-24T01:35:23;25.83;;;12.35;;
77838;SDS011;67034;43.226;27.932;2023-03-24T01:37:50;27.48;;;12.00;;
77838;SDS011;67034;43.226;27.932;2023-03-24T01:40:17;25.63;;;12.27;;
77838;SDS011;67034;43.226;27.932;2023-03-24T01:42:45;23.00;;;11.15;;
77838;SDS011;67034;43.226;27.932;2023-03-24T01:48:14;23.30;;;10.93;;
77838;SDS011;67034;43.226;27.932;2023-03-24T01:50:45;20.67;;;10.63;;
77838;SDS011;67034;43.226;27.932;2023-03-24T01:53:16;18.42;;;10.88;;
77838;SDS011;67034;43.226;27.932;2023-03-24T01:55:42;19.13;;;11.05;;
77838;SDS011;67034;43.226;27.932;2023-03-24T01:58:10;21.95;;;12.38;;
77838;SDS011;67034;43.226;27.932;2023-03-24T02:00:37;23.00;;;10.82;;
77838;SDS011;67034;43.226;27.932;2023-03-24T02:03:06;17.85;;;10.13;;
77838;SDS011;67034;43.226;27.932;2023-03-24T02:05:34;17.23;;;9.55;;
77838;SDS011;67034;43.226;27.932;2023-03-24T02:08:03;15.38;;;9.85;;
77838;SDS011;67034;43.226;27.932;2023-03-24T02:10:34;19.80;;;9.93;;
77838;SDS011;67034;43.226;27.932;2023-03-24T02:13:01;22.25;;;10.77;;
77838;SDS011;67034;43.226;27.932;2023-03-24T02:15:29;25.25;;;13.25;;
77838;SDS011;67034;43.226;27.932;2023-03-24T02:18:00;18.77;;;11.38;;
77838;SDS011;67034;43.226;27.932;2023-03-24T02:20:37;17.25;;;9.73;;
77838;SDS011;67034;43.226;27.932;2023-03-24T02:26:39;23.67;;;12.30;;
77838;SDS011;67034;43.226;27.932;2023-03-24T02:35:22;21.35;;;12.55;;
77838;SDS011;67034;43.226;27.932;2023-03-24T02:41:13;26.52;;;12.00;;
77838;SDS011;67034;43.226;27.932;2023-03-24T02:43:46;23.27;;;12.30;;
77838;SDS011;67034;43.226;27.932;2023-03-24T02:46:21;19.90;;;11.25;;
77838;SDS011;67034;43.226;27.932;2023-03-24T02:49:02;24.48;;;12.82;;
77838;SDS011;67034;43.226;27.932;2023-03-24T02:51:35;25.33;;;12.20;;
77838;SDS011;67034;43.226;27.932;2023-03-24T02:54:08;26.55;;;12.50;;
77838;SDS011;67034;43.226;27.932;2023-03-24T02:56:39;22.17;;;11.02;;
77838;SDS011;67034;43.226;27.932;2023-03-24T02:59:08;20.85;;;10.90;;
77838;SDS011;67034;43.226;27.932;2023-03-24T03:01:40;19.50;;;11.68;;
77838;SDS011;67034;43.226;27.932;2023-03-24T03:04:18;24.67;;;11.98;;
77838;SDS011;67034;43.226;27.932;2023-03-24T03:06:50;25.58;;;13.30;;
77838;SDS011;67034;43.226;27.932;2023-03-24T03:09:18;22.48;;;10.88;;
77838;SDS011;67034;43.226;27.932;2023-03-24T03:11:48;20.17;;;10.05;;
77838;SDS011;67034;43.226;27.932;2023-03-24T03:14:17;27.33;;;14.15;;
77838;SDS011;67034;43.226;27.932;2023-03-24T03:16:49;25.13;;;13.32;;
77838;SDS011;67034;43.226;27.932;2023-03-24T03:19:19;25.88;;;14.00;;
77838;SDS011;67034;43.226;27.932;2023-03-24T03:21:48;29.75;;;14.07;;
77838;SDS011;67034;43.226;27.932;2023-03-24T03:24:16;25.35;;;12.15;;
77838;SDS011;67034;43.226;27.932;2023-03-24T03:26:51;29.40;;;12.52;;
77838;SDS011;67034;43.226;27.932;2023-03-24T03:29:21;21.88;;;10.88;;
77838;SDS011;67034;43.226;27.932;2023-03-24T03:31:52;21.90;;;12.07;;
77838;SDS011;67034;43.226;27.932;2023-03-24T03:34:26;25.33;;;13.05;;
77838;SDS011;67034;43.226;27.932;2023-03-24T03:36:58;26.60;;;14.13;;
77838;SDS011;67034;43.226;27.932;2023-03-24T03:39:29;22.60;;;12.38;;
77838;SDS011;67034;43.226;27.932;2023-03-24T03:41:59;23.13;;;11.10;;
77838;SDS011;67034;43.226;27.932;2023-03-24T03:44:26;22.52;;;11.90;;
77838;SDS011;67034;43.226;27.932;2023-03-24T03:46:52;21.80;;;11.98;;
77838;SDS011;67034;43.226;27.932;2023-03-24T03:49:17;21.75;;;11.50;;
77838;SDS011;67034;43.226;27.932;2023-03-24T03:51:43;23.38;;;10.98;;
77838;SDS011;67034;43.226;27.932;2023-03-24T03:54:10;27.55;;;14.70;;
77838;SDS011;67034;43.226;27.932;2023-03-24T03:56:37;28.92;;;13.13;;
77838;SDS011;67034;43.226;27.932;2023-03-24T03:59:06;24.63;;;13.45;;
77838;SDS011;67034;43.226;27.932;2023-03-24T04:01:34;19.33;;;11.48;;
77838;SDS011;67034;43.226;27.932;2023-03-24T04:04:16;26.88;;;12.10;;
77838;SDS011;67034;43.226;27.932;2023-03-24T04:06:58;28.48;;;13.48;;
77838;SDS011;67034;43.226;27.932;2023-03-24T04:09:34;27.63;;;13.38;;
77838;SDS011;67034;43.226;27.932;2023-03-24T04:15:15;24.85;;;12.30;;
77838;SDS011;67034;43.226;27.932;2023-03-24T04:18:05;27.15;;;13.40;;
77838;SDS011;67034;43.226;27.932;2023-03-24T04:20:42;26.10;;;12.65;;
77838;SDS011;67034;43.226;27.932;2023-03-24T04:23:13;19.42;;;9.75;;
77838;SDS011;67034;43.226;27.932;2023-03-24T04:25:51;25.40;;;11.40;;
77838;SDS011;67034;43.226;27.932;2023-03-24T04:28:28;20.83;;;11.07;;
77838;SDS011;67034;43.226;27.932;2023-03-24T04:31:03;26.30;;;13.48;;
77838;SDS011;67034;43.226;27.932;2023-03-24T04:33:39;31.33;;;15.02;;
77838;SDS011;67034;43.226;27.932;2023-03-24T04:36:11;27.45;;;13.82;;
77838;SDS011;67034;43.226;27.932;2023-03-24T04:38:41;39.78;;;16.25;;
77838;SDS011;67034;43.226;27.932;2023-03-24T04:41:09;33.63;;;15.45;;
77838;SDS011;67034;43.226;27.932;2023-03-24T04:43:37;36.72;;;16.52;;
77838;SDS011;67034;43.226;27.932;2023-03-24T04:46:04;34.53;;;16.73;;
77838;SDS011;67034;43.226;27.932;2023-03-24T04:48:32;47.22;;;21.02;;
77838;SDS011;67034;43.226;27.932;2023-03-24T04:50:59;41.20;;;19.20;;
77838;SDS011;67034;43.226;27.932;2023-03-24T04:53:27;41.25;;;20.48;;
77838;SDS011;67034;43.226;27.932;2023-03-24T04:58:23;44.97;;;22.02;;
77838;SDS011;67034;43.226;27.932;2023-03-24T05:00:49;43.75;;;22.15;;
77838;SDS011;67034;43.226;27.932;2023-03-24T05:03:17;47.00;;;21.20;;
77838;SDS011;67034;43.226;27.932;2023-03-24T05:05:44;44.08;;;19.85;;
77838;SDS011;67034;43.226;27.932;2023-03-24T05:08:12;45.15;;;22.65;;
77838;SDS011;67034;43.226;27.932;2023-03-24T05:13:03;51.17;;;21.67;;
77838;SDS011;67034;43.226;27.932;2023-03-24T05:15:31;45.47;;;23.23;;
77838;SDS011;67034;43.226;27.932;2023-03-24T05:22:49;42.78;;;18.52;;
77838;SDS011;67034;43.226;27.932;2023-03-24T05:25:16;39.70;;;21.42;;
77838;SDS011;67034;43.226;27.932;2023-03-24T05:27:42;55.63;;;24.77;;
77838;SDS011;67034;43.226;27.932;2023-03-24T05:30:09;45.90;;;24.40;;
77838;SDS011;67034;43.226;27.932;2023-03-24T05:32:35;44.17;;;23.10;;
77838;SDS011;67034;43.226;27.932;2023-03-24T05:37:29;42.88;;;20.92;;
77838;SDS011;67034;43.226;27.932;2023-03-24T05:39:55;41.88;;;22.55;;
77838;SDS011;67034;43.226;27.932;2023-03-24T05:44:46;38.65;;;21.55;;
77838;SDS011;67034;43.226;27.932;2023-03-24T05:49:40;36.97;;;19.90;;
77838;SDS011;67034;43.226;27.932;2023-03-24T05:52:07;48.65;;;23.50;;
77838;SDS011;67034;43.226;27.932;2023-03-24T05:54:34;42.03;;;22.38;;
77838;SDS011;67034;43.226;27.932;2023-03-24T05:57:00;42.97;;;22.23;;
77838;SDS011;67034;43.226;27.932;2023-03-24T05:59:26;44.75;;;23.55;;
77838;SDS011;67034;43.226;27.932;2023-03-24T06:01:52;42.00;;;22.50;;
77838;SDS011;67034;43.226;27.932;2023-03-24T06:04:20;41.25;;;22.38;;
77838;SDS011;67034;43.226;27.932;2023-03-24T06:06:46;35.25;;;19.15;;
77838;SDS011;67034;43.226;27.932;2023-03-24T06:09:12;34.33;;;20.00;;
77838;SDS011;67034;43.226;27.932;2023-03-24T06:11:42;38.28;;;21.33;;
77838;SDS011;67034;43.226;27.932;2023-03-24T06:14:08;34.92;;;20.40;;
77838;SDS011;67034;43.226;27.932;2023-03-24T06:16:33;34.05;;;19.33;;
77838;SDS011;67034;43.226;27.932;2023-03-24T06:19:05;37.20;;;20.38;;
77838;SDS011;67034;43.226;27.932;2023-03-24T06:21:31;34.78;;;20.55;;
77838;SDS011;67034;43.226;27.932;2023-03-24T06:23:57;39.17;;;20.35;;
77838;SDS011;67034;43.226;27.932;2023-03-24T06:26:23;39.67;;;20.05;;
77838;SDS011;67034;43.226;27.932;2023-03-24T06:28:53;39.28;;;22.10;;
77838;SDS011;67034;43.226;27.932;2023-03-24T06:31:19;38.33;;;21.77;;
77838;SDS011;67034;43.226;27.932;2023-03-24T06:33:46;44.78;;;24.38;;
77838;SDS011;67034;43.226;27.932;2023-03-24T06:36:12;41.30;;;23.17;;
77838;SDS011;67034;43.226;27.932;2023-03-24T06:38:38;37.80;;;23.25;;
77838;SDS011;67034;43.226;27.932;2023-03-24T06:41:05;37.17;;;20.33;;
77838;SDS011;67034;43.226;27.932;2023-03-24T06:43:31;36.90;;;22.25;;
77838;SDS011;67034;43.226;27.932;2023-03-24T06:45:58;45.78;;;24.63;;
77838;SDS011;67034;43.226;27.932;2023-03-24T06:48:25;40.25;;;21.40;;
77838;SDS011;67034;43.226;27.932;2023-03-24T06:50:51;34.45;;;21.05;;
77838;SDS011;67034;43.226;27.932;2023-03-24T06:53:17;39.80;;;21.48;;
77838;SDS011;67034;43.226;27.932;2023-03-24T06:55:43;33.08;;;20.75;;
77838;SDS011;67034;43.226;27.932;2023-03-24T06:58:09;37.67;;;20.27;;
77838;SDS011;67034;43.226;27.932;2023-03-24T07:00:35;36.45;;;21.45;;
77838;SDS011;67034;43.226;27.932;2023-03-24T07:03:02;38.88;;;20.75;;
77838;SDS011;67034;43.226;27.932;2023-03-24T07:05:28;31.55;;;17.92;;
77838;SDS011;67034;43.226;27.932;2023-03-24T07:07:54;29.98;;;18.20;;
77838;SDS011;67034;43.226;27.932;2023-03-24T07:10:20;29.33;;;17.00;;
77838;SDS011;67034;43.226;27.932;2023-03-24T07:12:46;38.85;;;18.50;;
77838;SDS011;67034;43.226;27.932;2023-03-24T07:15:12;31.45;;;18.20;;
77838;SDS011;67034;43.226;27.932;2023-03-24T07:17:39;30.15;;;17.65;;
77838;SDS011;67034;43.226;27.932;2023-03-24T07:20:07;28.40;;;17.80;;
77838;SDS011;67034;43.226;27.932;2023-03-24T07:22:33;31.45;;;17.27;;
77838;SDS011;67034;43.226;27.932;2023-03-24T07:25:02;28.27;;;17.65;;
77838;SDS011;67034;43.226;27.932;2023-03-24T07:27:29;28.45;;;18.42;;
77838;SDS011;67034;43.226;27.932;2023-03-24T07:29:57;27.13;;;15.85;;
77838;SDS011;67034;43.226;27.932;2023-03-24T07:32:22;27.77;;;17.73;;
77838;SDS011;67034;43.226;27.932;2023-03-24T07:34:49;32.40;;;18.90;;
77838;SDS011;67034;43.226;27.932;2023-03-24T07:37:16;26.98;;;16.25;;
77838;SDS011;67034;43.226;27.932;2023-03-24T07:39:42;33.95;;;19.77;;
77838;SDS011;67034;43.226;27.932;2023-03-24T07:42:07;26.95;;;14.82;;
77838;SDS011;67034;43.226;27.932;2023-03-24T07:44:33;30.98;;;18.60;;
77838;SDS011;67034;43.226;27.932;2023-03-24T07:46:59;28.60;;;17.67;;
77838;SDS011;67034;43.226;27.932;2023-03-24T07:49:24;30.20;;;16.80;;
77838;SDS011;67034;43.226;27.932;2023-03-24T07:51:51;26.83;;;16.50;;
77838;SDS011;67034;43.226;27.932;2023-03-24T07:54:18;25.63;;;15.07;;
77838;SDS011;67034;43.226;27.932;2023-03-24T07:56:44;39.63;;;22.23;;
77838;SDS011;67034;43.226;27.932;2023-03-24T07:59:10;39.60;;;23.58;;
77838;SDS011;67034;43.226;27.932;2023-03-24T08:01:36;31.67;;;21.52;;
77838;SDS011;67034;43.226;27.932;2023-03-24T08:04:02;44.20;;;21.38;;
77838;SDS011;67034;43.226;27.932;2023-03-24T08:06:28;43.55;;;24.58;;
77838;SDS011;67034;43.226;27.932;2023-03-24T08:08:54;35.90;;;25.65;;
77838;SDS011;67034;43.226;27.932;2023-03-24T08:11:21;44.03;;;25.30;;
77838;SDS011;67034;43.226;27.932;2023-03-24T08:13:47;52.80;;;31.45;;
77838;SDS011;67034;43.226;27.932;2023-03-24T08:16:12;48.05;;;29.25;;
77838;SDS011;67034;43.226;27.932;2023-03-24T08:18:38;56.75;;;35.42;;
77838;SDS011;67034;43.226;27.932;2023-03-24T08:21:04;44.63;;;28.92;;
77838;SDS011;67034;43.226;27.932;2023-03-24T08:23:30;49.45;;;27.48;;
77838;SDS011;67034;43.226;27.932;2023-03-24T08:25:56;40.50;;;22.77;;
77838;SDS011;67034;43.226;27.932;2023-03-24T08:28:24;55.97;;;25.75;;
77838;SDS011;67034;43.226;27.932;2023-03-24T08:30:49;28.80;;;18.65;;
77838;SDS011;67034;43.226;27.932;2023-03-24T08:33:15;35.38;;;21.42;;
77838;SDS011;67034;43.226;27.932;2023-03-24T08:35:41;30.38;;;19.33;;
77838;SDS011;67034;43.226;27.932;2023-03-24T08:38:09;33.47;;;18.87;;
77838;SDS011;67034;43.226;27.932;2023-03-24T08:40:36;37.50;;;21.00;;
77838;SDS011;67034;43.226;27.932;2023-03-24T08:43:04;28.80;;;17.70;;
77838;SDS011;67034;43.226;27.932;2023-03-24T08:45:36;30.90;;;17.60;;
77838;SDS011;67034;43.226;27.932;2023-03-24T08:48:06;26.95;;;16.65;;
77838;SDS011;67034;43.226;27.932;2023-03-24T08:50:33;24.35;;;16.90;;
77838;SDS011;67034;43.226;27.932;2023-03-24T08:53:01;31.35;;;16.08;;
77838;SDS011;67034;43.226;27.932;2023-03-24T08:55:28;41.10;;;16.75;;
77838;SDS011;67034;43.226;27.932;2023-03-24T08:57:54;30.08;;;14.40;;
77838;SDS011;67034;43.226;27.932;2023-03-24T09:00:20;45.55;;;24.48;;
77838;SDS011;67034;43.226;27.932;2023-03-24T09:02:48;23.15;;;14.77;;
77838;SDS011;67034;43.226;27.932;2023-03-24T09:05:16;24.92;;;15.82;;
77838;SDS011;67034;43.226;27.932;2023-03-24T09:07:45;23.95;;;14.32;;
77838;SDS011;67034;43.226;27.932;2023-03-24T09:10:12;38.53;;;16.73;;
77838;SDS011;67034;43.226;27.932;2023-03-24T09:12:39;24.77;;;13.98;;
77838;SDS011;67034;43.226;27.932;2023-03-24T09:15:06;22.92;;;13.43;;
77838;SDS011;67034;43.226;27.932;2023-03-24T09:17:33;22.75;;;14.68;;
77838;SDS011;67034;43.226;27.932;2023-03-24T09:20:01;25.95;;;16.02;;
77838;SDS011;67034;43.226;27.932;2023-03-24T09:22:31;39.75;;;18.35;;
77838;SDS011;67034;43.226;27.932;2023-03-24T09:24:57;33.92;;;14.73;;
77838;SDS011;67034;43.226;27.932;2023-03-24T09:27:22;23.80;;;14.38;;
77838;SDS011;67034;43.226;27.932;2023-03-24T09:29:48;21.58;;;15.13;;
77838;SDS011;67034;43.226;27.932;2023-03-24T09:32:14;31.45;;;14.98;;
77838;SDS011;67034;43.226;27.932;2023-03-24T09:34:40;28.73;;;17.33;;
77838;SDS011;67034;43.226;27.932;2023-03-24T09:37:07;25.52;;;15.00;;
77838;SDS011;67034;43.226;27.932;2023-03-24T09:39:33;33.70;;;15.65;;
77838;SDS011;67034;43.226;27.932;2023-03-24T09:41:59;25.23;;;14.48;;
77838;SDS011;67034;43.226;27.932;2023-03-24T09:44:27;25.10;;;14.35;;
77838;SDS011;67034;43.226;27.932;2023-03-24T09:46:58;30.70;;;15.43;;
77838;SDS011;67034;43.226;27.932;2023-03-24T09:49:28;26.40;;;14.10;;
77838;SDS011;67034;43.226;27.932;2023-03-24T09:52:00;32.33;;;13.80;;
77838;SDS011;67034;43.226;27.932;2023-03-24T09:54:31;25.40;;;15.75;;
77838;SDS011;67034;43.226;27.932;2023-03-24T09:57:07;23.02;;;13.27;;
77838;SDS011;67034;43.226;27.932;2023-03-24T09:59:39;26.08;;;14.05;;
77838;SDS011;67034;43.226;27.932;2023-03-24T10:02:09;18.58;;;12.57;;
77838;SDS011;67034;43.226;27.932;2023-03-24T10:04:36;23.13;;;14.40;;
77838;SDS011;67034;43.226;27.932;2023-03-24T10:07:04;32.08;;;13.38;;
77838;SDS011;67034;43.226;27.932;2023-03-24T10:09:35;22.90;;;13.98;;
77838;SDS011;67034;43.226;27.932;2023-03-24T10:12:14;23.90;;;13.93;;
77838;SDS011;67034;43.226;27.932;2023-03-24T10:14:51;18.58;;;13.30;;
77838;SDS011;67034;43.226;27.932;2023-03-24T10:17:30;22.25;;;13.93;;
77838;SDS011;67034;43.226;27.932;2023-03-24T10:20:04;25.58;;;14.00;;
77838;SDS011;67034;43.226;27.932;2023-03-24T10:22:42;19.48;;;13.55;;
77838;SDS011;67034;43.226;27.932;2023-03-24T10:25:17;23.17;;;13.85;;
77838;SDS011;67034;43.226;27.932;2023-03-24T10:27:48;23.23;;;13.48;;
77838;SDS011;67034;43.226;27.932;2023-03-24T10:30:18;27.38;;;12.30;;
77838;SDS011;67034;43.226;27.932;2023-03-24T10:32:46;23.00;;;15.80;;
77838;SDS011;67034;43.226;27.932;2023-03-24T10:35:16;27.25;;;13.00;;
77838;SDS011;67034;43.226;27.932;2023-03-24T10:37:49;22.90;;;13.30;;
77838;SDS011;67034;43.226;27.932;2023-03-24T10:40:18;23.27;;;13.93;;
77838;SDS011;67034;43.226;27.932;2023-03-24T10:42:47;25.13;;;14.13;;
77838;SDS011;67034;43.226;27.932;2023-03-24T10:45:17;18.92;;;14.30;;
77838;SDS011;67034;43.226;27.932;2023-03-24T10:47:49;25.05;;;13.18;;
77838;SDS011;67034;43.226;27.932;2023-03-24T10:50:17;18.35;;;11.82;;
77838;SDS011;67034;43.226;27.932;2023-03-24T10:52:47;20.83;;;12.23;;
77838;SDS011;67034;43.226;27.932;2023-03-24T10:55:15;24.77;;;13.20;;
77838;SDS011;67034;43.226;27.932;2023-03-24T10:57:48;18.67;;;11.93;;
77838;SDS011;67034;43.226;27.932;2023-03-24T11:00:18;22.85;;;14.13;;
77838;SDS011;67034;43.226;27.932;2023-03-24T11:02:52;45.45;;;15.93;;
77838;SDS011;67034;43.226;27.932;2023-03-24T11:05:20;35.08;;;18.83;;
77838;SDS011;67034;43.226;27.932;2023-03-24T11:07:53;36.83;;;17.45;;
77838;SDS011;67034;43.226;27.932;2023-03-24T11:10:24;28.25;;;17.27;;
77838;SDS011;67034;43.226;27.932;2023-03-24T11:13:00;25.00;;;15.48;;
77838;SDS011;67034;43.226;27.932;2023-03-24T11:15:28;23.52;;;13.77;;
77838;SDS011;67034;43.226;27.932;2023-03-24T11:17:56;20.88;;;14.35;;
77838;SDS011;67034;43.226;27.932;2023-03-24T11:20:25;35.10;;;21.45;;
77838;SDS011;67034;43.226;27.932;2023-03-24T11:22:55;27.23;;;16.30;;
77838;SDS011;67034;43.226;27.932;2023-03-24T11:25:28;37.13;;;17.95;;
77838;SDS011;67034;43.226;27.932;2023-03-24T11:27:56;17.88;;;10.93;;
77838;SDS011;67034;43.226;27.932;2023-03-24T11:30:24;28.60;;;14.88;;
77838;SDS011;67034;43.226;27.932;2023-03-24T11:32:54;28.98;;;16.63;;
77838;SDS011;67034;43.226;27.932;2023-03-24T11:35:21;42.45;;;18.00;;
77838;SDS011;67034;43.226;27.932;2023-03-24T11:37:56;36.25;;;16.98;;
77838;SDS011;67034;43.226;27.932;2023-03-24T11:40:28;43.00;;;20.02;;
77838;SDS011;67034;43.226;27.932;2023-03-24T11:42:56;27.05;;;14.48;;
77838;SDS011;67034;43.226;27.932;2023-03-24T11:45:25;35.50;;;15.02;;
77838;SDS011;67034;43.226;27.932;2023-03-24T11:47:55;38.03;;;15.90;;
77838;SDS011;67034;43.226;27.932;2023-03-24T11:50:23;27.60;;;12.60;;
77838;SDS011;67034;43.226;27.932;2023-03-24T11:52:53;48.78;;;14.02;;
77838;SDS011;67034;43.226;27.932;2023-03-24T11:55:33;22.60;;;11.05;;
77838;SDS011;67034;43.226;27.932;2023-03-24T11:58:05;15.80;;;10.77;;
77838;SDS011;67034;43.226;27.932;2023-03-24T12:00:41;23.25;;;10.75;;
77838;SDS011;67034;43.226;27.932;2023-03-24T12:03:22;16.65;;;9.75;;
77838;SDS011;67034;43.226;27.932;2023-03-24T12:06:14;21.27;;;10.87;;
77838;SDS011;67034;43.226;27.932;2023-03-24T12:08:51;20.45;;;12.05;;
77838;SDS011;67034;43.226;27.932;2023-03-24T12:11:32;19.65;;;11.35;;
77838;SDS011;67034;43.226;27.932;2023-03-24T12:14:12;16.48;;;10.60;;
77838;SDS011;67034;43.226;27.932;2023-03-24T12:16:48;26.75;;;15.30;;
77838;SDS011;67034;43.226;27.932;2023-03-24T12:19:23;24.13;;;12.88;;
77838;SDS011;67034;43.226;27.932;2023-03-24T12:22:01;21.05;;;10.35;;
77838;SDS011;67034;43.226;27.932;2023-03-24T12:24:40;23.42;;;11.50;;
77838;SDS011;67034;43.226;27.932;2023-03-24T12:27:22;16.02;;;11.40;;
77838;SDS011;67034;43.226;27.932;2023-03-24T12:29:56;19.08;;;12.77;;
77838;SDS011;67034;43.226;27.932;2023-03-24T12:38:19;29.17;;;13.00;;
77838;SDS011;67034;43.226;27.932;2023-03-24T12:47:08;16.42;;;11.07;;
77838;SDS011;67034;43.226;27.932;2023-03-24T12:49:48;22.48;;;13.18;;
77838;SDS011;67034;43.226;27.932;2023-03-24T12:52:26;24.70;;;12.48;;
77838;SDS011;67034;43.226;27.932;2023-03-24T12:55:07;19.58;;;12.18;;
77838;SDS011;67034;43.226;27.932;2023-03-24T12:57:38;20.75;;;12.23;;
77838;SDS011;67034;43.226;27.932;2023-03-24T13:00:11;27.23;;;12.77;;
77838;SDS011;67034;43.226;27.932;2023-03-24T13:02:44;18.60;;;11.57;;
77838;SDS011;67034;43.226;27.932;2023-03-24T13:05:14;17.50;;;11.35;;
77838;SDS011;67034;43.226;27.932;2023-03-24T13:07:43;22.52;;;11.43;;
77838;SDS011;67034;43.226;27.932;2023-03-24T13:10:12;27.02;;;12.35;;
77838;SDS011;67034;43.226;27.932;2023-03-24T13:12:40;23.25;;;12.05;;
77838;SDS011;67034;43.226;27.932;2023-03-24T13:15:14;19.45;;;9.90;;
77838;SDS011;67034;43.226;27.932;2023-03-24T13:17:44;22.70;;;11.15;;
77838;SDS011;67034;43.226;27.932;2023-03-24T13:20:16;23.77;;;11.65;;
77838;SDS011;67034;43.226;27.932;2023-03-24T13:22:48;21.80;;;11.40;;
77838;SDS011;67034;43.226;27.932;2023-03-24T13:25:18;14.23;;;10.07;;
77838;SDS011;67034;43.226;27.932;2023-03-24T13:27:52;18.45;;;12.20;;
77838;SDS011;67034;43.226;27.932;2023-03-24T13:32:57;17.77;;;10.45;;
77838;SDS011;67034;43.226;27.932;2023-03-24T13:35:30;40.42;;;12.80;;
77838;SDS011;67034;43.226;27.932;2023-03-24T13:38:06;13.85;;;9.40;;
77838;SDS011;67034;43.226;27.932;2023-03-24T13:40:39;24.10;;;11.75;;
77838;SDS011;67034;43.226;27.932;2023-03-24T13:43:06;17.53;;;9.83;;
77838;SDS011;67034;43.226;27.932;2023-03-24T13:45:38;19.92;;;9.70;;
77838;SDS011;67034;43.226;27.932;2023-03-24T13:48:15;16.85;;;10.38;;
77838;SDS011;67034;43.226;27.932;2023-03-24T13:50:51;17.15;;;10.13;;
77838;SDS011;67034;43.226;27.932;2023-03-24T13:53:23;15.65;;;9.48;;
77838;SDS011;67034;43.226;27.932;2023-03-24T13:55:55;16.25;;;9.23;;
77838;SDS011;67034;43.226;27.932;2023-03-24T13:58:22;12.73;;;7.78;;
77838;SDS011;67034;43.226;27.932;2023-03-24T14:06:52;17.73;;;8.52;;
77838;SDS011;67034;43.226;27.932;2023-03-24T14:09:20;18.48;;;8.60;;
77838;SDS011;67034;43.226;27.932;2023-03-24T14:11:48;19.42;;;9.73;;
77838;SDS011;67034;43.226;27.932;2023-03-24T14:14:29;15.88;;;8.80;;
77838;SDS011;67034;43.226;27.932;2023-03-24T14:17:05;12.38;;;8.70;;
77838;SDS011;67034;43.226;27.932;2023-03-24T14:22:08;14.48;;;8.50;;
77838;SDS011;67034;43.226;27.932;2023-03-24T14:24:37;18.52;;;10.05;;
77838;SDS011;67034;43.226;27.932;2023-03-24T14:27:20;12.43;;;9.07;;
77838;SDS011;67034;43.226;27.932;2023-03-24T14:29:59;14.63;;;8.80;;
77838;SDS011;67034;43.226;27.932;2023-03-24T14:32:28;18.35;;;9.35;;
77838;SDS011;67034;43.226;27.932;2023-03-24T14:34:54;14.15;;;9.20;;
77838;SDS011;67034;43.226;27.932;2023-03-24T14:37:25;18.95;;;8.27;;
77838;SDS011;67034;43.226;27.932;2023-03-24T14:39:53;17.58;;;9.32;;
77838;SDS011;67034;43.226;27.932;2023-03-24T14:42:40;16.80;;;8.38;;
77838;SDS011;67034;43.226;27.932;2023-03-24T14:45:39;18.40;;;9.57;;
77838;SDS011;67034;43.226;27.932;2023-03-24T14:48:20;28.95;;;14.32;;
77838;SDS011;67034;43.226;27.932;2023-03-24T14:50:49;30.80;;;16.58;;
77838;SDS011;67034;43.226;27.932;2023-03-24T14:53:18;12.30;;;8.85;;
77838;SDS011;67034;43.226;27.932;2023-03-24T14:55:45;33.80;;;17.73;;
77838;SDS011;67034;43.226;27.932;2023-03-24T14:58:16;21.38;;;10.30;;
77838;SDS011;67034;43.226;27.932;2023-03-24T15:00:47;16.15;;;9.90;;
77838;SDS011;67034;43.226;27.932;2023-03-24T15:03:16;22.35;;;12.30;;
77838;SDS011;67034;43.226;27.932;2023-03-24T15:05:47;14.52;;;9.70;;
77838;SDS011;67034;43.226;27.932;2023-03-24T15:08:13;12.85;;;8.43;;
77838;SDS011;67034;43.226;27.932;2023-03-24T15:10:45;13.82;;;9.05;;
77838;SDS011;67034;43.226;27.932;2023-03-24T15:16:02;12.27;;;8.18;;
77838;SDS011;67034;43.226;27.932;2023-03-24T15:18:31;14.98;;;8.93;;
77838;SDS011;67034;43.226;27.932;2023-03-24T15:20:56;13.20;;;8.20;;
77838;SDS011;67034;43.226;27.932;2023-03-24T15:23:23;15.05;;;8.73;;
77838;SDS011;67034;43.226;27.932;2023-03-24T15:25:50;16.10;;;8.93;;
77838;SDS011;67034;43.226;27.932;2023-03-24T15:28:17;17.02;;;9.13;;